createdAt,value
2018-02-27T00:01:07.440Z,2.45
2018-02-27T00:03:34.296Z,3.00
2018-02-27T00:06:01.387Z,3.28
2018-02-27T00:08:28.534Z,4.15
2018-02-27T00:10:55.355Z,2.12
2018-02-27T00:13:22.182Z,2.37
2018-02-27T00:15:49.044Z,2.70
2018-02-27T00:18:16.214Z,2.55
2018-02-27T00:20:43.057Z,3.45
2018-02-27T00:23:09.914Z,4.53
2018-02-27T00:25:36.789Z,2.60
2018-02-27T00:28:03.896Z,2.60
2018-02-27T00:30:30.728Z,3.03
2018-02-27T00:32:58.002Z,2.55
2018-02-27T00:35:24.840Z,2.75
2018-02-27T00:37:51.675Z,2.83
2018-02-27T00:40:18.723Z,2.70
2018-02-27T00:42:45.562Z,2.50
2018-02-27T00:45:12.378Z,2.70
2018-02-27T00:47:39.458Z,2.60
2018-02-27T00:50:06.305Z,3.00
2018-02-27T00:52:33.156Z,2.80
2018-02-27T00:54:59.996Z,4.05
2018-02-27T00:57:27.139Z,2.72
2018-02-27T00:59:53.969Z,3.53
2018-02-27T01:02:20.803Z,2.85
2018-02-27T01:04:47.983Z,2.85
2018-02-27T01:07:15.136Z,2.50
2018-02-27T01:09:41.992Z,2.80
2018-02-27T01:12:09.119Z,3.08
2018-02-27T01:14:35.955Z,2.80
2018-02-27T01:17:02.797Z,2.90
2018-02-27T01:19:29.649Z,3.30
2018-02-27T01:21:56.520Z,4.00
2018-02-27T01:24:23.368Z,3.90
2018-02-27T01:26:50.208Z,2.63
2018-02-27T01:29:17.055Z,2.97
2018-02-27T01:31:44.079Z,3.60
2018-02-27T01:34:10.988Z,3.10
2018-02-27T01:36:37.856Z,3.10
2018-02-27T01:39:05.007Z,3.70
2018-02-27T01:41:31.863Z,3.40
2018-02-27T01:43:58.698Z,4.15
2018-02-27T01:46:25.510Z,6.70
2018-02-27T01:48:52.356Z,3.47
2018-02-27T01:51:19.162Z,3.50
2018-02-27T01:53:46.016Z,3.83
2018-02-27T01:56:13.124Z,4.20
2018-02-27T01:58:39.951Z,4.30
2018-02-27T02:01:07.018Z,3.72
2018-02-27T02:03:34.164Z,4.82
2018-02-27T02:06:01.316Z,4.12
2018-02-27T02:08:28.462Z,3.90
2018-02-27T02:10:55.617Z,4.05
2018-02-27T02:13:22.697Z,4.10
2018-02-27T02:15:49.532Z,4.00
2018-02-27T02:18:16.384Z,5.67
2018-02-27T02:20:43.232Z,3.65
2018-02-27T02:23:10.101Z,4.18
2018-02-27T02:25:36.919Z,3.72
2018-02-27T02:28:03.763Z,4.65
2018-02-27T02:30:30.618Z,3.87
2018-02-27T02:32:57.711Z,3.80
2018-02-27T02:35:24.969Z,3.40
2018-02-27T02:39:40.588Z,3.53
2018-02-27T02:42:23.320Z,4.63
2018-02-27T02:44:50.172Z,4.47
2018-02-27T02:47:17.271Z,4.50
2018-02-27T02:49:44.089Z,3.58
2018-02-27T02:52:10.933Z,4.53
2018-02-27T02:54:38.024Z,4.37
2018-02-27T02:57:04.836Z,3.95
2018-02-27T02:59:31.688Z,3.85
2018-02-27T03:01:58.504Z,3.78
2018-02-27T03:04:25.410Z,4.03
2018-02-27T03:06:52.195Z,3.77
2018-02-27T03:09:19.068Z,3.80
2018-02-27T03:11:45.904Z,3.90
2018-02-27T03:14:12.743Z,5.32
2018-02-27T03:16:39.598Z,6.10
2018-02-27T03:19:06.412Z,5.47
2018-02-27T03:21:33.586Z,4.97
2018-02-27T03:24:00.444Z,4.37
2018-02-27T03:26:27.292Z,4.00
2018-02-27T03:28:54.127Z,3.83
2018-02-27T03:31:20.969Z,4.00
2018-02-27T03:33:47.783Z,4.10
2018-02-27T03:36:14.591Z,3.65
2018-02-27T03:38:41.453Z,4.62
2018-02-27T03:41:08.532Z,3.70
2018-02-27T03:43:35.685Z,4.03
2018-02-27T03:46:02.830Z,3.50
2018-02-27T03:48:29.648Z,3.40
2018-02-27T03:50:56.521Z,3.83
2018-02-27T03:53:23.372Z,4.10
2018-02-27T03:55:50.420Z,4.70
2018-02-27T03:58:17.251Z,4.28
2018-02-27T04:00:44.122Z,3.80
2018-02-27T04:03:10.951Z,5.87
2018-02-27T04:05:37.816Z,5.78
2018-02-27T04:08:04.635Z,4.07
2018-02-27T04:10:31.470Z,5.10
2018-02-27T04:12:58.615Z,3.55
2018-02-27T04:15:25.468Z,3.80
2018-02-27T04:17:52.320Z,4.57
2018-02-27T04:20:19.181Z,3.60
2018-02-27T04:22:46.298Z,3.28
2018-02-27T04:25:13.454Z,3.40
2018-02-27T04:27:40.292Z,4.28
2018-02-27T04:30:07.106Z,5.03
2018-02-27T04:32:33.956Z,4.65
2018-02-27T04:35:01.136Z,2.80
2018-02-27T04:37:28.279Z,3.15
2018-02-27T04:39:55.142Z,3.10
2018-02-27T04:42:21.992Z,2.80
2018-02-27T04:44:48.810Z,3.42
2018-02-27T04:47:15.964Z,2.90
2018-02-27T04:49:42.813Z,3.10
2018-02-27T04:52:09.631Z,3.87
2018-02-27T04:54:36.458Z,3.00
2018-02-27T04:57:03.645Z,3.70
2018-02-27T04:59:30.787Z,3.87
2018-02-27T05:01:57.604Z,4.20
2018-02-27T05:04:24.682Z,3.00
2018-02-27T05:06:51.830Z,1.90
2018-02-27T05:09:18.673Z,1.90
2018-02-27T05:11:45.540Z,1.80
2018-02-27T05:14:12.390Z,2.65
2018-02-27T05:16:39.260Z,2.47
2018-02-27T05:19:06.075Z,2.00
2018-02-27T05:21:32.948Z,2.10
2018-02-27T05:23:59.769Z,3.60
2018-02-27T05:26:26.643Z,5.18
2018-02-27T05:28:53.496Z,5.18
2018-02-27T05:31:20.373Z,2.90
2018-02-27T05:33:47.220Z,2.60
2018-02-27T05:36:14.065Z,4.20
2018-02-27T05:38:40.895Z,1.98
2018-02-27T05:41:08.044Z,2.40
2018-02-27T05:43:34.881Z,2.40
2018-02-27T05:46:01.691Z,2.62
2018-02-27T05:48:28.779Z,4.00
2018-02-27T05:50:55.936Z,7.18
2018-02-27T05:53:22.982Z,4.87
2018-02-27T05:55:49.807Z,2.60
2018-02-27T05:58:16.664Z,2.40
2018-02-27T06:00:43.518Z,3.83
2018-02-27T06:03:10.551Z,2.50
2018-02-27T06:05:37.407Z,2.10
2018-02-27T06:08:04.231Z,2.20
2018-02-27T06:10:31.397Z,2.28
2018-02-27T06:12:58.211Z,3.40
2018-02-27T06:15:25.283Z,2.40
2018-02-27T06:17:52.356Z,2.20
2018-02-27T06:20:19.220Z,2.83
2018-02-27T06:22:46.089Z,1.90
2018-02-27T06:25:12.962Z,3.12
2018-02-27T06:27:39.791Z,3.05
2018-02-27T06:30:06.961Z,6.37
2018-02-27T06:32:34.108Z,2.33
2018-02-27T06:35:00.952Z,6.80
2018-02-27T06:37:27.805Z,8.52
2018-02-27T06:39:54.644Z,3.33
2018-02-27T06:42:21.783Z,3.03
2018-02-27T06:44:48.600Z,1.95
2018-02-27T06:47:15.807Z,1.80
2018-02-27T06:49:42.611Z,2.20
2018-02-27T06:52:09.463Z,2.30
2018-02-27T06:54:36.624Z,2.03
2018-02-27T06:57:03.812Z,3.42
2018-02-27T06:59:30.619Z,2.25
2018-02-27T07:01:57.437Z,2.78
2018-02-27T07:04:24.263Z,1.92
2018-02-27T07:06:51.449Z,2.55
2018-02-27T07:09:18.275Z,5.10
2018-02-27T07:11:45.124Z,3.70
2018-02-27T07:14:12.289Z,2.20
2018-02-27T07:16:39.115Z,3.67
2018-02-27T07:19:06.046Z,2.50
2018-02-27T07:21:32.855Z,2.08
2018-02-27T07:23:59.969Z,1.90
2018-02-27T07:26:26.799Z,3.55
2018-02-27T07:28:53.641Z,2.45
2018-02-27T07:31:20.697Z,2.40
2018-02-27T07:33:47.506Z,2.03
2018-02-27T07:36:14.697Z,3.28
2018-02-27T07:38:41.508Z,2.72
2018-02-27T07:41:08.323Z,2.00
2018-02-27T07:43:35.155Z,2.65
2018-02-27T07:46:02.271Z,3.47
2018-02-27T07:48:29.449Z,2.25
2018-02-27T07:50:56.271Z,1.65
2018-02-27T07:53:23.421Z,4.32
2018-02-27T07:55:50.565Z,1.70
2018-02-27T07:58:17.816Z,1.33
2018-02-27T08:00:44.653Z,2.40
2018-02-27T08:03:11.502Z,1.52
2018-02-27T08:05:38.367Z,1.50
2018-02-27T08:08:05.178Z,2.22
2018-02-27T08:10:32.235Z,1.70
2018-02-27T08:12:59.395Z,1.33
2018-02-27T08:15:26.535Z,1.50
2018-02-27T08:17:53.393Z,1.60
2018-02-27T08:20:20.203Z,1.20
2018-02-27T08:22:47.029Z,2.85
2018-02-27T08:25:13.877Z,2.75
2018-02-27T08:27:40.694Z,1.92
2018-02-27T08:30:07.510Z,1.65
2018-02-27T08:32:34.648Z,3.87
2018-02-27T08:35:01.456Z,3.50
2018-02-27T08:37:28.276Z,3.13
2018-02-27T08:39:55.091Z,5.00
2018-02-27T08:42:22.224Z,1.70
2018-02-27T08:44:49.051Z,2.45
2018-02-27T08:47:15.876Z,2.90
2018-02-27T08:49:42.685Z,4.35
2018-02-27T08:52:09.801Z,2.15
2018-02-27T08:54:36.676Z,2.47
2018-02-27T08:57:03.791Z,4.50
2018-02-27T08:59:30.630Z,1.50
2018-02-27T09:01:57.688Z,3.40
2018-02-27T09:04:24.497Z,2.20
2018-02-27T09:06:51.353Z,5.72
2018-02-27T09:09:18.163Z,2.17
2018-02-27T09:11:45.264Z,2.50
2018-02-27T09:14:12.416Z,2.67
2018-02-27T09:16:39.240Z,2.70
2018-02-27T09:19:06.100Z,9.90
2018-02-27T09:21:32.918Z,1.50
2018-02-27T09:23:59.988Z,2.65
2018-02-27T09:26:26.816Z,2.00
2018-02-27T09:28:53.635Z,12.93
2018-02-27T09:31:20.518Z,10.95
2018-02-27T09:33:47.307Z,6.40
2018-02-27T09:36:14.123Z,2.00
2018-02-27T09:38:41.040Z,1.50
2018-02-27T09:41:08.090Z,1.70
2018-02-27T09:43:34.918Z,2.42
2018-02-27T09:46:01.768Z,1.60
2018-02-27T09:48:28.933Z,1.90
2018-02-27T09:50:55.780Z,1.65
2018-02-27T09:53:22.636Z,1.52
2018-02-27T09:55:49.447Z,1.50
2018-02-27T09:58:16.296Z,1.45
2018-02-27T10:00:43.460Z,1.92
2018-02-27T10:03:10.282Z,2.43
2018-02-27T10:05:37.342Z,1.60
2018-02-27T10:08:04.399Z,2.13
2018-02-27T10:10:31.203Z,2.10
2018-02-27T10:12:58.052Z,2.65
2018-02-27T10:15:25.231Z,2.95
2018-02-27T10:17:52.084Z,1.70
2018-02-27T10:20:19.841Z,1.50
2018-02-27T10:22:46.693Z,1.83
2018-02-27T10:25:13.541Z,1.95
2018-02-27T10:27:40.675Z,1.60
2018-02-27T10:30:07.586Z,1.35
2018-02-27T10:32:34.441Z,2.20
2018-02-27T10:35:01.247Z,1.40
2018-02-27T10:37:28.059Z,2.60
2018-02-27T10:39:54.904Z,1.30
2018-02-27T10:42:21.713Z,1.37
2018-02-27T10:44:48.888Z,1.40
2018-02-27T10:47:15.718Z,1.50
2018-02-27T10:49:42.587Z,2.25
2018-02-27T10:52:09.725Z,1.25
2018-02-27T10:54:36.602Z,1.70
2018-02-27T10:57:03.436Z,1.30
2018-02-27T10:59:30.302Z,1.40
2018-02-27T11:01:57.170Z,1.70
2018-02-27T11:04:23.959Z,5.65
2018-02-27T11:06:50.801Z,1.60
2018-02-27T11:09:17.615Z,2.20
2018-02-27T11:11:44.673Z,1.10
2018-02-27T11:14:11.494Z,1.80
2018-02-27T11:16:38.310Z,2.37
2018-02-27T11:19:05.179Z,1.40
2018-02-27T11:21:31.985Z,3.33
2018-02-27T11:23:58.830Z,1.50
2018-02-27T11:26:25.673Z,4.60
2018-02-27T11:28:52.520Z,1.20
2018-02-27T11:31:19.324Z,1.77
2018-02-27T11:33:46.473Z,1.83
2018-02-27T11:36:13.317Z,1.17
2018-02-27T11:38:40.166Z,4.00
2018-02-27T11:41:07.017Z,2.10
2018-02-27T11:43:34.149Z,1.73
2018-02-27T11:46:01.300Z,2.40
2018-02-27T11:48:28.123Z,1.83
2018-02-27T11:50:54.993Z,1.50
2018-02-27T11:53:21.879Z,1.80
2018-02-27T11:55:48.716Z,1.42
2018-02-27T11:58:15.540Z,2.12
2018-02-27T12:00:42.661Z,1.60
2018-02-27T12:03:09.510Z,1.83
2018-02-27T12:05:36.651Z,3.80
2018-02-27T12:08:03.811Z,3.10
2018-02-27T12:10:30.959Z,2.90
2018-02-27T12:12:57.771Z,4.65
2018-02-27T12:15:24.607Z,3.12
2018-02-27T12:17:51.456Z,4.00
2018-02-27T12:20:18.317Z,4.28
2018-02-27T12:22:45.140Z,5.35
2018-02-27T12:25:12.017Z,4.37
2018-02-27T12:27:38.852Z,3.00
2018-02-27T12:30:06.011Z,3.20
2018-02-27T12:32:33.155Z,3.30
2018-02-27T12:35:00.308Z,9.80
2018-02-27T12:37:27.160Z,5.65
2018-02-27T12:39:53.994Z,2.80
2018-02-27T12:42:21.148Z,4.40
2018-02-27T12:44:48.010Z,3.50
2018-02-27T12:47:14.834Z,2.50
2018-02-27T12:49:41.713Z,2.92
2018-02-27T12:52:08.613Z,2.50
2018-02-27T12:54:35.435Z,6.32
2018-02-27T12:57:02.282Z,3.35
2018-02-27T12:59:29.132Z,2.43
2018-02-27T13:01:55.945Z,4.20
2018-02-27T13:04:22.800Z,2.58
2018-02-27T13:06:49.623Z,3.20
2018-02-27T13:09:16.528Z,2.10
2018-02-27T13:11:43.398Z,1.52
2018-02-27T13:14:10.283Z,1.20
2018-02-27T13:16:37.131Z,2.33
2018-02-27T13:19:04.232Z,4.07
2018-02-27T13:21:31.102Z,1.83
2018-02-27T13:23:58.001Z,2.00
2018-02-27T13:26:24.877Z,2.03
2018-02-27T13:28:51.742Z,3.20
2018-02-27T13:31:18.596Z,2.50
2018-02-27T13:33:45.435Z,1.40
2018-02-27T13:36:12.631Z,1.60
2018-02-27T13:38:39.488Z,1.70
2018-02-27T13:41:06.382Z,1.83
2018-02-27T13:43:33.252Z,1.87
2018-02-27T13:46:00.125Z,3.45
2018-02-27T13:48:26.998Z,6.12
2018-02-27T13:50:53.868Z,2.80
2018-02-27T13:53:20.685Z,3.60
2018-02-27T13:55:47.550Z,3.10
2018-02-27T13:58:14.422Z,3.35
2018-02-27T14:00:41.709Z,3.58
2018-02-27T14:03:08.823Z,3.08
2018-02-27T14:05:35.660Z,5.20
2018-02-27T14:08:02.499Z,3.92
2018-02-27T14:10:29.405Z,10.45
2018-02-27T14:12:56.495Z,5.65
2018-02-27T14:15:23.400Z,4.70
2018-02-27T14:17:50.220Z,6.50
2018-02-27T14:20:17.340Z,5.57
2018-02-27T14:22:44.485Z,5.55
2018-02-27T14:25:11.637Z,5.57
2018-02-27T14:27:38.491Z,6.60
2018-02-27T14:30:05.632Z,10.95
2018-02-27T14:32:32.801Z,10.45
2018-02-27T14:34:59.631Z,12.60
2018-02-27T14:37:26.767Z,11.02
2018-02-27T14:39:53.587Z,11.20
2018-02-27T14:42:20.436Z,10.45
2018-02-27T14:44:47.259Z,10.95
2018-02-27T14:47:14.454Z,12.73
2018-02-27T14:49:41.334Z,13.10
2018-02-27T14:52:08.159Z,11.85
2018-02-27T14:54:34.995Z,14.02
2018-02-27T14:57:01.877Z,12.52
2018-02-27T14:59:28.698Z,13.05
2018-02-27T15:01:55.520Z,12.20
2018-02-27T15:04:22.428Z,19.00
2018-02-27T15:06:49.289Z,13.62
2018-02-27T15:09:16.132Z,13.00
2018-02-27T15:11:43.076Z,10.52
2018-02-27T15:14:09.925Z,12.27
2018-02-27T15:16:36.824Z,10.77
2018-02-27T15:19:03.651Z,10.85
2018-02-27T15:21:30.467Z,12.02
2018-02-27T15:23:57.287Z,11.38
2018-02-27T15:26:24.123Z,10.90
2018-02-27T15:28:51.000Z,10.48
2018-02-27T15:31:17.821Z,11.77
2018-02-27T15:33:44.985Z,9.30
2018-02-27T15:36:11.830Z,9.27
2018-02-27T15:38:38.976Z,9.70
2018-02-27T15:41:05.857Z,11.10
2018-02-27T15:43:32.700Z,9.63
2018-02-27T15:45:59.657Z,9.00
2018-02-27T15:48:26.863Z,8.65
2018-02-27T15:50:53.683Z,9.57
2018-02-27T15:53:20.533Z,9.80
2018-02-27T15:55:47.391Z,8.18
2018-02-27T15:58:14.194Z,7.60
2018-02-27T16:00:41.088Z,12.05
2018-02-27T16:03:07.893Z,9.45
2018-02-27T16:05:35.088Z,8.82
2018-02-27T16:08:02.135Z,10.47
2018-02-27T16:10:29.000Z,10.30
2018-02-27T16:12:55.819Z,9.73
2018-02-27T16:15:22.912Z,8.82
2018-02-27T16:17:50.031Z,8.55
2018-02-27T16:20:16.876Z,10.77
2018-02-27T16:22:43.743Z,10.07
2018-02-27T16:25:10.970Z,11.20
2018-02-27T16:27:37.797Z,11.25
2018-02-27T16:30:04.607Z,10.55
2018-02-27T16:32:31.493Z,9.88
2018-02-27T16:34:58.619Z,12.63
2018-02-27T16:37:25.482Z,11.23
2018-02-27T16:39:52.310Z,10.65
2018-02-27T16:42:19.178Z,10.30
2018-02-27T16:44:46.304Z,9.68
2018-02-27T16:47:13.458Z,12.07
2018-02-27T16:49:40.275Z,12.55
2018-02-27T16:52:07.103Z,11.95
2018-02-27T16:54:33.919Z,10.60
2018-02-27T16:57:01.036Z,10.43
2018-02-27T16:59:28.183Z,11.68
2018-02-27T17:01:55.015Z,10.27
2018-02-27T17:04:21.830Z,10.60
2018-02-27T17:06:49.020Z,9.98
2018-02-27T17:09:15.892Z,10.43
2018-02-27T17:11:43.013Z,9.75
2018-02-27T17:14:10.154Z,8.65
2018-02-27T17:16:36.986Z,7.87
2018-02-27T17:19:03.825Z,7.80
2018-02-27T17:21:30.657Z,10.20
2018-02-27T17:23:57.495Z,8.85
2018-02-27T17:26:24.684Z,8.13
2018-02-27T17:28:51.491Z,8.00
2018-02-27T17:31:18.576Z,7.60
2018-02-27T17:33:45.413Z,6.68
2018-02-27T17:36:12.269Z,9.13
2018-02-27T17:38:39.119Z,9.15
2018-02-27T17:41:06.172Z,7.50
2018-02-27T17:43:33.020Z,6.60
2018-02-27T17:45:59.952Z,8.93
2018-02-27T17:48:26.802Z,7.73
2018-02-27T17:50:53.936Z,8.90
2018-02-27T17:53:20.778Z,8.40
2018-02-27T17:55:47.628Z,9.68
2018-02-27T17:58:15.595Z,8.35
2018-02-27T18:00:42.476Z,10.05
2018-02-27T18:03:09.315Z,7.18
2018-02-27T18:05:36.169Z,9.50
2018-02-27T18:08:03.381Z,8.15
2018-02-27T18:10:30.519Z,9.43
2018-02-27T18:12:57.400Z,10.38
2018-02-27T18:15:24.220Z,9.85
2018-02-27T18:17:51.055Z,16.42
2018-02-27T18:20:17.909Z,10.00
2018-02-27T18:22:44.784Z,10.30
2018-02-27T18:25:11.999Z,12.32
2018-02-27T18:27:39.145Z,9.23
2018-02-27T18:30:05.986Z,8.95
2018-02-27T18:32:33.143Z,11.15
2018-02-27T18:35:00.287Z,9.98
2018-02-27T18:37:27.444Z,10.27
2018-02-27T18:39:54.275Z,10.50
2018-02-27T18:42:21.116Z,11.40
2018-02-27T18:44:48.276Z,11.60
2018-02-27T18:47:15.095Z,13.62
2018-02-27T18:49:42.164Z,15.07
2018-02-27T18:52:09.019Z,12.32
2018-02-27T18:54:35.831Z,14.73
2018-02-27T18:57:02.655Z,12.32
2018-02-27T18:59:29.496Z,11.50
2018-02-27T19:01:56.353Z,10.60
2018-02-27T19:04:23.201Z,11.50
2018-02-27T19:06:50.040Z,11.73
2018-02-27T19:09:16.892Z,12.07
2018-02-27T19:11:43.724Z,12.65
2018-02-27T19:14:10.563Z,11.48
2018-02-27T19:16:37.420Z,10.23
2018-02-27T19:19:04.282Z,10.80
2018-02-27T19:21:31.120Z,11.63
2018-02-27T19:23:58.275Z,12.15
2018-02-27T19:26:25.473Z,9.40
2018-02-27T19:28:52.300Z,9.15
2018-02-27T19:31:19.483Z,10.10
2018-02-27T19:33:46.571Z,9.05
2018-02-27T19:36:13.615Z,6.18
2018-02-27T19:38:40.473Z,8.02
2018-02-27T19:41:07.311Z,6.68
2018-02-27T19:43:34.144Z,9.18
2018-02-27T19:46:00.996Z,7.40
2018-02-27T19:48:27.819Z,8.13
2018-02-27T19:50:54.681Z,7.65
2018-02-27T19:53:21.828Z,7.25
2018-02-27T19:55:48.983Z,6.20
2018-02-27T19:58:15.806Z,6.20
2018-02-27T20:00:42.662Z,6.37
2018-02-27T20:03:09.495Z,4.93
2018-02-27T20:05:36.362Z,5.10
2018-02-27T20:08:03.192Z,5.90
2018-02-27T20:10:30.008Z,4.53
2018-02-27T20:12:57.083Z,3.40
2018-02-27T20:15:23.892Z,3.35
2018-02-27T20:17:50.972Z,4.60
2018-02-27T20:20:17.795Z,4.07
2018-02-27T20:22:44.972Z,4.07
2018-02-27T20:25:11.806Z,3.25
2018-02-27T20:27:38.635Z,3.28
2018-02-27T20:30:05.473Z,2.87
2018-02-27T20:32:32.283Z,2.78
2018-02-27T20:34:59.252Z,2.90
2018-02-27T20:37:26.063Z,3.63
2018-02-27T20:39:52.879Z,3.80
2018-02-27T20:42:19.724Z,3.80
2018-02-27T20:44:46.538Z,2.70
2018-02-27T20:47:13.376Z,4.20
2018-02-27T20:49:40.240Z,3.05
2018-02-27T20:52:07.398Z,4.60
2018-02-27T20:54:34.236Z,3.30
2018-02-27T20:57:01.093Z,2.83
2018-02-27T20:59:28.227Z,3.30
2018-02-27T21:01:55.068Z,2.40
2018-02-27T21:04:21.929Z,2.83
2018-02-27T21:06:48.759Z,2.75
2018-02-27T21:09:15.604Z,3.10
2018-02-27T21:11:42.447Z,4.05
2018-02-27T21:14:09.304Z,2.40
2018-02-27T21:16:36.158Z,3.22
2018-02-27T21:19:02.999Z,3.40
2018-02-27T21:21:30.128Z,3.30
2018-02-27T21:23:57.325Z,3.12
2018-02-27T21:26:24.146Z,2.78
2018-02-27T21:28:50.951Z,3.25
2018-02-27T21:31:17.796Z,3.80
2018-02-27T21:33:44.657Z,3.08
2018-02-27T21:36:11.476Z,2.97
2018-02-27T21:38:38.324Z,2.47
2018-02-27T21:41:05.192Z,4.80
2018-02-27T21:43:32.007Z,2.50
2018-02-27T21:45:58.848Z,8.75
2018-02-27T21:48:26.016Z,4.50
2018-02-27T21:50:52.852Z,5.37
2018-02-27T21:53:19.728Z,2.80
2018-02-27T21:55:46.593Z,7.68
2018-02-27T21:58:13.442Z,2.95
2018-02-27T22:00:40.275Z,3.30
2018-02-27T22:03:08.101Z,3.35
2018-02-27T22:05:34.972Z,3.75
2018-02-27T22:08:01.820Z,3.42
2018-02-27T22:10:28.940Z,3.00
2018-02-27T22:12:55.781Z,4.20
2018-02-27T22:15:22.625Z,2.70
2018-02-27T22:17:49.455Z,4.37
2018-02-27T22:20:16.623Z,3.75
2018-02-27T22:22:43.450Z,5.40
2018-02-27T22:25:10.311Z,3.37
2018-02-27T22:27:37.149Z,2.60
2018-02-27T22:30:03.959Z,2.87
2018-02-27T22:32:30.825Z,3.47
2018-02-27T22:34:57.988Z,3.62
2018-02-27T22:37:24.829Z,3.90
2018-02-27T22:39:51.700Z,3.75
2018-02-27T22:42:18.556Z,3.15
2018-02-27T22:44:45.363Z,3.15
2018-02-27T22:47:12.508Z,2.90
2018-02-27T22:49:39.357Z,2.90
2018-02-27T22:52:06.501Z,2.62
2018-02-27T22:54:33.411Z,3.40
2018-02-27T22:57:00.486Z,2.70
2018-02-27T22:59:27.309Z,2.75
2018-02-27T23:01:54.379Z,3.40
2018-02-27T23:04:21.231Z,3.40
2018-02-27T23:06:48.376Z,2.60
2018-02-27T23:09:15.244Z,4.95
2018-02-27T23:11:42.097Z,3.03
2018-02-27T23:14:09.207Z,2.50
2018-02-27T23:16:36.359Z,3.42
2018-02-27T23:19:03.425Z,5.00
2018-02-27T23:21:30.559Z,3.00
2018-02-27T23:23:57.684Z,4.72
2018-02-27T23:26:29.364Z,2.80
2018-02-27T23:28:59.642Z,4.07
2018-02-27T23:31:26.675Z,3.72
2018-02-27T23:33:57.001Z,3.22
2018-02-27T23:36:24.519Z,2.72
2018-02-27T23:38:51.671Z,3.30
2018-02-27T23:41:19.156Z,4.65
2018-02-27T23:43:45.986Z,3.67
2018-02-27T23:46:13.127Z,4.97
2018-02-27T23:48:40.208Z,3.12
2018-02-27T23:51:07.035Z,2.90
2018-02-27T23:53:33.838Z,4.35
2018-02-27T23:56:00.654Z,2.97
2018-02-27T23:58:27.484Z,4.00
